Time,TemperatureF,DewpointF,PressureIn,WindDirection,WindDirectionDegrees,WindSpeedMPH,WindSpeedGustMPH,Humidity,HourlyPrecipIn,Conditions,Clouds,dailyrainin,SoftwareType,DateUTC
2013-06-06 00:01:00,55.2,47.5,30.16,WSW,246,0.0,0.0,75,0.00,,,0.00,meteobridge,2013-06-06 04:01:00,
2013-06-06 00:03:00,55.2,47.8,30.16,WSW,246,0.0,0.0,76,0.00,,,0.00,meteobridge,2013-06-06 04:03:00,
2013-06-06 00:05:00,55.2,47.8,30.16,WSW,246,0.0,0.0,76,0.00,,,0.00,meteobridge,2013-06-06 04:05:00,
2013-06-06 00:10:00,55.0,47.7,30.16,WSW,246,0.0,0.0,76,0.00,,,0.00,meteobridge,2013-06-06 04:10:00,
2013-06-06 00:11:00,55.0,47.7,30.16,WSW,246,0.0,0.0,76,0.00,,,0.00,meteobridge,2013-06-06 04:11:00,
2013-06-06 00:17:00,54.9,47.5,30.16,WSW,246,0.0,0.0,76,0.00,,,0.00,meteobridge,2013-06-06 04:17:00,
2013-06-06 00:22:00,54.7,48.0,30.16,WSW,246,0.0,0.0,78,0.00,,,0.00,meteobridge,2013-06-06 04:22:00,
2013-06-06 00:27:00,54.3,47.7,30.16,WSW,246,0.0,0.0,78,0.00,,,0.00,meteobridge,2013-06-06 04:27:00,
2013-06-06 00:33:00,54.1,47.5,30.16,WSW,246,0.0,0.0,78,0.00,,,0.00,meteobridge,2013-06-06 04:33:00,
2013-06-06 00:38:00,54.0,47.3,30.16,WSW,246,0.0,0.0,78,0.00,,,0.00,meteobridge,2013-06-06 04:38:00,
2013-06-06 00:43:00,54.0,47.3,30.16,WSW,246,0.0,0.0,78,0.00,,,0.00,meteobridge,2013-06-06 04:43:00,
2013-06-06 00:48:00,53.8,47.5,30.16,WSW,246,0.0,0.0,79,0.00,,,0.00,meteobridge,2013-06-06 04:48:00,
2013-06-06 00:53:00,53.4,47.5,30.16,WSW,246,0.0,0.0,80,0.00,,,0.00,meteobridge,2013-06-06 04:53:00,
2013-06-06 00:59:00,53.2,47.3,30.15,WSW,246,0.0,0.0,80,0.00,,,0.00,meteobridge,2013-06-06 04:59:00,
2013-06-06 01:04:00,53.2,47.5,30.15,WSW,246,0.0,0.0,81,0.00,,,0.00,meteobridge,2013-06-06 05:04:00,
2013-06-06 01:09:00,53.1,47.3,30.15,WSW,246,0.0,0.0,81,0.00,,,0.00,meteobridge,2013-06-06 05:09:00,
2013-06-06 01:15:00,52.9,47.3,30.15,WSW,246,0.0,0.0,81,0.00,,,0.00,meteobridge,2013-06-06 05:15:00,
2013-06-06 01:20:00,52.9,47.5,30.16,WSW,246,0.0,0.0,82,0.00,,,0.00,meteobridge,2013-06-06 05:20:00,
2013-06-06 01:25:00,52.7,47.3,30.16,WSW,246,0.0,0.0,82,0.00,,,0.00,meteobridge,2013-06-06 05:25:00,
2013-06-06 01:30:00,52.5,47.5,30.15,WSW,246,0.0,0.0,83,0.00,,,0.00,meteobridge,2013-06-06 05:30:00,
2013-06-06 01:36:00,52.5,47.8,30.15,WSW,246,0.0,0.0,84,0.00,,,0.00,meteobridge,2013-06-06 05:36:00,
2013-06-06 01:41:00,52.3,48.0,30.15,WSW,246,0.0,0.0,85,0.00,,,0.00,meteobridge,2013-06-06 05:41:00,
2013-06-06 01:47:00,52.3,47.7,30.14,WSW,246,0.0,0.0,84,0.00,,,0.00,meteobridge,2013-06-06 05:47:00,
2013-06-06 01:53:00,52.2,47.8,30.15,WSW,246,0.0,0.0,85,0.00,,,0.00,meteobridge,2013-06-06 05:53:00,
2013-06-06 01:58:00,52.0,47.7,30.15,WSW,246,0.0,0.0,85,0.00,,,0.00,meteobridge,2013-06-06 05:58:00,
2013-06-06 02:03:00,52.0,47.7,30.15,WSW,246,0.0,0.0,85,0.00,,,0.00,meteobridge,2013-06-06 06:03:00,
2013-06-06 02:09:00,51.6,47.5,30.16,WSW,246,0.0,0.0,86,0.00,,,0.00,meteobridge,2013-06-06 06:09:00,
2013-06-06 02:14:00,51.6,47.5,30.16,WSW,246,0.0,0.0,86,0.00,,,0.00,meteobridge,2013-06-06 06:14:00,
2013-06-06 02:19:00,51.4,47.5,30.16,WSW,246,0.0,0.0,86,0.00,,,0.00,meteobridge,2013-06-06 06:19:00,
2013-06-06 02:24:00,51.3,47.5,30.16,WSW,246,0.0,0.0,87,0.00,,,0.00,meteobridge,2013-06-06 06:24:00,
2013-06-06 02:30:00,51.1,47.3,30.16,WSW,246,0.0,0.0,87,0.00,,,0.00,meteobridge,2013-06-06 06:30:00,
2013-06-06 02:36:00,51.1,47.7,30.17,WSW,246,0.0,0.0,88,0.00,,,0.00,meteobridge,2013-06-06 06:36:00,
2013-06-06 02:41:00,50.9,47.5,30.17,WSW,246,0.0,0.0,88,0.00,,,0.00,meteobridge,2013-06-06 06:41:00,
2013-06-06 02:46:00,50.9,47.8,30.17,WSW,246,0.0,0.0,89,0.00,,,0.00,meteobridge,2013-06-06 06:46:00,
2013-06-06 02:52:00,50.7,47.7,30.17,WSW,246,0.0,0.0,89,0.00,,,0.00,meteobridge,2013-06-06 06:52:00,
2013-06-06 02:57:00,50.7,47.8,30.17,WSW,246,0.0,0.0,90,0.00,,,0.00,meteobridge,2013-06-06 06:57:00,
2013-06-06 03:02:00,50.7,47.8,30.16,WSW,246,0.0,0.0,90,0.00,,,0.00,meteobridge,2013-06-06 07:02:00,
2013-06-06 03:08:00,50.9,48.4,30.17,WSW,246,0.0,0.0,91,0.00,,,0.00,meteobridge,2013-06-06 07:08:00,
2013-06-06 03:13:00,50.9,48.4,30.17,WSW,246,0.0,0.0,91,0.00,,,0.00,meteobridge,2013-06-06 07:13:00,
2013-06-06 03:18:00,51.1,48.6,30.17,WSW,246,0.0,0.0,91,0.00,,,0.00,meteobridge,2013-06-06 07:18:00,
2013-06-06 03:23:00,51.1,48.6,30.16,WSW,246,0.0,0.0,91,0.00,,,0.00,meteobridge,2013-06-06 07:23:00,
2013-06-06 03:28:00,51.1,48.6,30.16,WSW,246,0.0,0.0,91,0.00,,,0.00,meteobridge,2013-06-06 07:28:00,
2013-06-06 03:34:00,51.3,49.1,30.16,WSW,246,0.0,0.0,92,0.00,,,0.00,meteobridge,2013-06-06 07:34:00,
2013-06-06 03:39:00,51.3,48.7,30.16,WSW,246,0.0,0.0,91,0.00,,,0.00,meteobridge,2013-06-06 07:39:00,
2013-06-06 03:45:00,51.3,49.1,30.16,WSW,246,0.0,0.0,92,0.00,,,0.00,meteobridge,2013-06-06 07:45:00,
2013-06-06 03:50:00,51.4,49.3,30.16,WSW,246,0.0,0.0,92,0.00,,,0.00,meteobridge,2013-06-06 07:50:00,
2013-06-06 03:55:00,51.4,49.3,30.16,WSW,246,0.0,0.0,92,0.00,,,0.00,meteobridge,2013-06-06 07:55:00,
2013-06-06 04:00:00,51.4,49.3,30.16,WSW,246,0.0,0.0,92,0.00,,,0.00,meteobridge,2013-06-06 08:00:00,
2013-06-06 04:05:00,51.6,49.6,30.15,WSW,246,0.0,0.0,93,0.00,,,0.00,meteobridge,2013-06-06 08:05:00,
2013-06-06 04:10:00,51.6,49.5,30.16,WSW,246,0.0,0.0,92,0.00,,,0.00,meteobridge,2013-06-06 08:10:00,
2013-06-06 04:16:00,51.6,49.1,30.16,WSW,246,0.0,0.0,91,0.00,,,0.00,meteobridge,2013-06-06 08:16:00,
2013-06-06 04:21:00,51.6,49.1,30.16,WSW,246,0.0,0.0,91,0.00,,,0.00,meteobridge,2013-06-06 08:21:00,
2013-06-06 04:26:00,51.4,48.6,30.16,WSW,246,0.0,0.0,90,0.00,,,0.00,meteobridge,2013-06-06 08:26:00,
2013-06-06 04:32:00,51.4,48.6,30.16,WSW,246,0.0,0.0,90,0.00,,,0.00,meteobridge,2013-06-06 08:32:00,
2013-06-06 04:37:00,51.4,48.6,30.16,WSW,246,0.0,0.0,90,0.00,,,0.00,meteobridge,2013-06-06 08:37:00,
2013-06-06 04:42:00,51.4,48.6,30.17,WSW,246,0.0,0.0,90,0.00,,,0.00,meteobridge,2013-06-06 08:42:00,
2013-06-06 04:48:00,51.3,48.4,30.16,WSW,246,0.0,0.0,90,0.00,,,0.00,meteobridge,2013-06-06 08:48:00,
2013-06-06 04:53:00,51.3,48.4,30.16,WSW,246,0.0,0.0,90,0.00,,,0.00,meteobridge,2013-06-06 08:53:00,
2013-06-06 04:59:00,51.3,48.7,30.16,WSW,246,0.0,0.0,91,0.00,,,0.00,meteobridge,2013-06-06 08:59:00,
2013-06-06 05:04:00,51.1,48.6,30.16,WSW,246,0.0,0.0,91,0.00,,,0.00,meteobridge,2013-06-06 09:04:00,
2013-06-06 05:10:00,51.1,48.6,30.16,WSW,246,0.0,0.0,91,0.00,,,0.00,meteobridge,2013-06-06 09:10:00,
2013-06-06 05:15:00,51.1,48.9,30.16,WSW,246,0.0,0.0,92,0.00,,,0.00,meteobridge,2013-06-06 09:15:00,
2013-06-06 05:20:00,51.1,49.1,30.16,WSW,246,0.0,0.0,93,0.00,,,0.00,meteobridge,2013-06-06 09:20:00,
2013-06-06 05:25:00,51.1,48.9,30.16,WSW,246,0.0,0.0,92,0.00,,,0.00,meteobridge,2013-06-06 09:25:00,
2013-06-06 05:30:00,51.3,49.3,30.16,WSW,248,0.0,0.0,93,0.00,,,0.00,meteobridge,2013-06-06 09:30:00,
2013-06-06 05:36:00,51.3,49.3,30.15,WSW,248,0.0,0.0,93,0.00,,,0.00,meteobridge,2013-06-06 09:36:00,
2013-06-06 05:41:00,51.4,49.5,30.15,WSW,248,0.0,0.0,93,0.00,,,0.00,meteobridge,2013-06-06 09:41:00,
2013-06-06 05:46:00,51.4,49.5,30.15,WSW,248,0.0,0.0,93,0.00,,,0.00,meteobridge,2013-06-06 09:46:00,
2013-06-06 05:51:00,51.6,50.0,30.16,WSW,248,0.0,0.0,94,0.00,,,0.00,meteobridge,2013-06-06 09:51:00,
2013-06-06 05:57:00,51.8,50.2,30.16,WSW,248,0.0,0.0,94,0.00,,,0.00,meteobridge,2013-06-06 09:57:00,
2013-06-06 06:02:00,52.0,50.4,30.16,WSW,248,0.0,0.0,94,0.00,,,0.00,meteobridge,2013-06-06 10:02:00,
2013-06-06 06:08:00,52.2,50.5,30.16,WSW,248,0.0,0.0,94,0.00,,,0.00,meteobridge,2013-06-06 10:08:00,
2013-06-06 06:14:00,52.2,50.5,30.16,WSW,248,0.0,0.0,94,0.00,,,0.00,meteobridge,2013-06-06 10:14:00,
2013-06-06 06:19:00,52.3,50.7,30.15,WSW,248,0.0,0.0,94,0.00,,,0.00,meteobridge,2013-06-06 10:19:00,
2013-06-06 06:24:00,52.5,50.9,30.15,WSW,248,0.0,0.0,94,0.00,,,0.00,meteobridge,2013-06-06 10:24:00,
2013-06-06 06:29:00,52.7,51.1,30.16,WSW,248,0.0,0.0,94,0.00,,,0.00,meteobridge,2013-06-06 10:29:00,
2013-06-06 06:34:00,52.9,51.3,30.16,WSW,248,0.0,0.0,94,0.00,,,0.00,meteobridge,2013-06-06 10:34:00,
2013-06-06 06:40:00,53.1,51.4,30.16,WSW,248,0.0,0.0,94,0.00,,,0.00,meteobridge,2013-06-06 10:40:00,
2013-06-06 06:45:00,53.2,51.6,30.17,WSW,248,0.0,0.0,94,0.00,,,0.00,meteobridge,2013-06-06 10:45:00,
2013-06-06 06:51:00,53.4,51.4,30.17,WSW,248,0.0,0.0,93,0.00,,,0.00,meteobridge,2013-06-06 10:51:00,
2013-06-06 06:56:00,53.8,51.8,30.17,WSW,248,0.0,0.0,93,0.00,,,0.00,meteobridge,2013-06-06 10:56:00,
2013-06-06 07:01:00,54.0,52.0,30.16,WSW,248,0.0,0.0,93,0.00,,,0.00,meteobridge,2013-06-06 11:01:00,
2013-06-06 07:06:00,54.1,52.2,30.16,WSW,248,0.0,0.0,93,0.00,,,0.00,meteobridge,2013-06-06 11:06:00,
2013-06-06 07:12:00,54.3,52.3,30.16,WSW,248,0.0,0.0,93,0.00,,,0.00,meteobridge,2013-06-06 11:12:00,
2013-06-06 07:17:00,54.7,52.7,30.16,WSW,248,0.0,0.0,93,0.00,,,0.00,meteobridge,2013-06-06 11:17:00,
2013-06-06 07:22:00,54.9,52.9,30.16,WSW,248,0.0,0.0,93,0.00,,,0.00,meteobridge,2013-06-06 11:22:00,
2013-06-06 07:27:00,55.2,53.2,30.16,WSW,248,0.0,0.0,93,0.00,,,0.00,meteobridge,2013-06-06 11:27:00,
2013-06-06 07:33:00,55.6,53.2,30.17,WSW,248,0.0,0.0,92,0.00,,,0.00,meteobridge,2013-06-06 11:33:00,
2013-06-06 07:39:00,55.8,53.4,30.17,WSW,248,0.0,0.0,92,0.00,,,0.00,meteobridge,2013-06-06 11:39:00,
2013-06-06 07:44:00,55.9,53.4,30.16,WSW,248,0.0,0.0,91,0.00,,,0.00,meteobridge,2013-06-06 11:44:00,
2013-06-06 07:49:00,56.1,53.6,30.16,WSW,248,0.0,0.0,91,0.00,,,0.00,meteobridge,2013-06-06 11:49:00,
2013-06-06 07:54:00,56.5,54.0,30.17,WSW,248,0.0,0.0,91,0.00,,,0.00,meteobridge,2013-06-06 11:54:00,
2013-06-06 08:00:00,56.7,53.8,30.16,WSW,248,0.0,0.0,90,0.00,,,0.00,meteobridge,2013-06-06 12:00:00,
2013-06-06 08:05:00,57.0,54.1,30.16,WSW,248,0.0,0.0,90,0.00,,,0.00,meteobridge,2013-06-06 12:05:00,
2013-06-06 08:10:00,57.2,54.0,30.16,WSW,248,0.0,0.0,89,0.00,,,0.00,meteobridge,2013-06-06 12:10:00,
2013-06-06 08:16:00,57.6,54.3,30.16,WSW,248,0.0,0.0,89,0.00,,,0.00,meteobridge,2013-06-06 12:16:00,
2013-06-06 08:21:00,57.7,54.5,30.16,WSW,248,0.0,0.0,89,0.00,,,0.00,meteobridge,2013-06-06 12:21:00,
2013-06-06 08:26:00,57.9,54.3,30.16,WSW,248,0.0,0.0,88,0.00,,,0.00,meteobridge,2013-06-06 12:26:00,
2013-06-06 08:31:00,58.3,55.0,30.16,WSW,248,0.0,0.0,89,0.00,,,0.00,meteobridge,2013-06-06 12:31:00,
2013-06-06 08:36:00,58.6,55.0,30.16,WSW,248,0.0,0.0,88,0.00,,,0.00,meteobridge,2013-06-06 12:36:00,
2013-06-06 08:42:00,58.8,55.2,30.16,SSE,165,0.9,0.9,88,0.00,,,0.00,meteobridge,2013-06-06 12:42:00,
2013-06-06 08:47:00,59.2,55.4,30.16,SSE,163,0.0,0.0,87,0.00,,,0.00,meteobridge,2013-06-06 12:47:00,
2013-06-06 08:52:00,59.5,55.6,30.16,SSE,163,0.9,2.0,87,0.00,,,0.00,meteobridge,2013-06-06 12:52:00,
2013-06-06 08:57:00,59.9,55.9,30.16,SSE,163,0.0,0.0,87,0.00,,,0.00,meteobridge,2013-06-06 12:57:00,
2013-06-06 09:03:00,60.3,55.8,30.16,SW,220,0.0,0.9,85,0.00,,,0.00,meteobridge,2013-06-06 13:03:00,
2013-06-06 09:09:00,60.8,56.3,30.16,SW,220,0.0,0.0,85,0.00,,,0.00,meteobridge,2013-06-06 13:09:00,
2013-06-06 09:14:00,61.5,55.9,30.15,NE,51,0.0,2.0,82,0.00,,,0.00,meteobridge,2013-06-06 13:14:00,
2013-06-06 09:19:00,62.2,56.7,30.15,NE,48,0.0,0.0,82,0.00,,,0.00,meteobridge,2013-06-06 13:19:00,
2013-06-06 09:24:00,62.8,56.5,30.15,NE,52,0.0,0.9,80,0.00,,,0.00,meteobridge,2013-06-06 13:24:00,
2013-06-06 09:30:00,63.1,56.8,30.15,ENE,78,0.0,0.9,80,0.00,,,0.00,meteobridge,2013-06-06 13:30:00,
2013-06-06 09:35:00,63.7,56.3,30.14,ENE,69,0.9,2.9,77,0.00,,,0.00,meteobridge,2013-06-06 13:35:00,
2013-06-06 09:40:00,64.2,56.8,30.14,East,79,0.0,0.9,77,0.00,,,0.00,meteobridge,2013-06-06 13:40:00,
2013-06-06 09:45:00,64.8,56.7,30.14,ENE,65,0.0,2.9,75,0.00,,,0.00,meteobridge,2013-06-06 13:45:00,
2013-06-06 09:50:00,65.5,57.4,30.14,East,92,0.0,0.9,75,0.00,,,0.00,meteobridge,2013-06-06 13:50:00,
2013-06-06 09:56:00,66.0,56.3,30.14,East,86,0.9,2.0,71,0.00,,,0.00,meteobridge,2013-06-06 13:56:00,
2013-06-06 10:01:00,66.6,56.5,30.14,ESE,119,0.9,2.0,70,0.00,,,0.00,meteobridge,2013-06-06 14:01:00,
2013-06-06 10:06:00,67.3,55.9,30.14,NNE,29,0.0,0.9,67,0.00,,,0.00,meteobridge,2013-06-06 14:06:00,
2013-06-06 10:12:00,67.5,57.0,30.14,SE,144,0.0,0.9,69,0.00,,,0.00,meteobridge,2013-06-06 14:12:00,
2013-06-06 10:17:00,67.6,57.6,30.14,West,259,0.0,0.9,70,0.00,,,0.00,meteobridge,2013-06-06 14:17:00,
2013-06-06 10:22:00,67.8,56.8,30.14,SSW,198,0.9,4.0,68,0.00,,,0.00,meteobridge,2013-06-06 14:22:00,
2013-06-06 10:27:00,68.0,56.7,30.14,SSW,211,4.9,4.9,67,0.00,,,0.00,meteobridge,2013-06-06 14:27:00,
2013-06-06 10:33:00,68.2,56.3,30.14,NE,35,0.0,2.9,66,0.00,,,0.00,meteobridge,2013-06-06 14:33:00,
2013-06-06 10:38:00,68.2,57.2,30.14,SW,229,0.9,0.9,68,0.00,,,0.00,meteobridge,2013-06-06 14:38:00,
2013-06-06 10:43:00,68.2,56.3,30.14,SSW,202,0.0,0.9,66,0.00,,,0.00,meteobridge,2013-06-06 14:43:00,
2013-06-06 10:48:00,68.2,56.8,30.14,SW,222,0.0,2.0,67,0.00,,,0.00,meteobridge,2013-06-06 14:48:00,
2013-06-06 10:54:00,68.4,57.0,30.14,SSW,206,0.0,2.0,67,0.00,,,0.00,meteobridge,2013-06-06 14:54:00,
2013-06-06 10:59:00,68.5,57.2,30.14,South,178,0.9,0.9,67,0.00,,,0.00,meteobridge,2013-06-06 14:59:00,
2013-06-06 11:04:00,68.5,57.2,30.14,West,279,0.9,4.9,67,0.00,,,0.00,meteobridge,2013-06-06 15:04:00,
2013-06-06 11:10:00,68.5,56.7,30.13,East,79,0.0,0.9,66,0.00,,,0.00,meteobridge,2013-06-06 15:10:00,
2013-06-06 11:15:00,68.7,57.4,30.13,SSE,164,0.0,0.9,67,0.00,,,0.00,meteobridge,2013-06-06 15:15:00,
2013-06-06 11:20:00,69.1,57.7,30.13,SE,135,0.9,2.0,67,0.00,,,0.00,meteobridge,2013-06-06 15:20:00,
2013-06-06 11:25:00,69.1,57.2,30.13,SW,227,0.9,2.9,66,0.00,,,0.00,meteobridge,2013-06-06 15:25:00,
2013-06-06 11:30:00,69.3,57.9,30.13,SSW,207,0.9,2.0,67,0.00,,,0.00,meteobridge,2013-06-06 15:30:00,
2013-06-06 11:35:00,69.4,56.7,30.14,SSW,198,0.0,0.9,64,0.00,,,0.00,meteobridge,2013-06-06 15:35:00,
2013-06-06 11:40:00,69.4,56.7,30.14,SW,224,2.0,2.0,64,0.00,,,0.00,meteobridge,2013-06-06 15:40:00,
2013-06-06 11:45:00,69.6,56.5,30.13,SSW,192,2.0,4.0,63,0.00,,,0.00,meteobridge,2013-06-06 15:45:00,
2013-06-06 11:51:00,69.6,55.9,30.13,SSW,200,0.9,0.9,62,0.00,,,0.00,meteobridge,2013-06-06 15:51:00,
2013-06-06 11:56:00,69.6,55.9,30.13,South,177,0.0,2.0,62,0.00,,,0.00,meteobridge,2013-06-06 15:56:00,
2013-06-06 12:01:00,69.6,56.5,30.13,NW,304,0.9,2.0,63,0.00,,,0.00,meteobridge,2013-06-06 16:01:00,
2013-06-06 12:07:00,69.4,55.4,30.13,ENE,76,0.0,2.0,61,0.00,,,0.00,meteobridge,2013-06-06 16:07:00,
2013-06-06 12:12:00,69.3,56.1,30.13,North,355,0.0,2.0,63,0.00,,,0.00,meteobridge,2013-06-06 16:12:00,
2013-06-06 12:17:00,69.3,55.2,30.13,SW,231,0.0,2.0,61,0.00,,,0.00,meteobridge,2013-06-06 16:17:00,
2013-06-06 12:22:00,69.3,55.2,30.13,SSW,205,0.0,4.9,61,0.00,,,0.00,meteobridge,2013-06-06 16:22:00,
2013-06-06 12:27:00,69.1,54.1,30.13,SW,234,0.0,2.0,59,0.00,,,0.00,meteobridge,2013-06-06 16:27:00,
2013-06-06 12:32:00,68.9,54.5,30.12,NE,44,0.0,2.9,60,0.00,,,0.00,meteobridge,2013-06-06 16:32:00,
2013-06-06 12:38:00,68.5,53.6,30.12,SSW,192,0.9,4.0,59,0.00,,,0.00,meteobridge,2013-06-06 16:38:00,
2013-06-06 12:43:00,68.4,54.3,30.12,SE,137,0.9,2.0,61,0.00,,,0.00,meteobridge,2013-06-06 16:43:00,
2013-06-06 12:48:00,68.4,54.3,30.12,WNW,288,0.0,2.0,61,0.00,,,0.00,meteobridge,2013-06-06 16:48:00,
2013-06-06 12:54:00,68.4,55.2,30.11,SSE,155,0.9,4.0,63,0.00,,,0.00,meteobridge,2013-06-06 16:54:00,
2013-06-06 12:59:00,68.4,54.9,30.12,SSW,203,2.9,4.9,62,0.00,,,0.00,meteobridge,2013-06-06 16:59:00,
2013-06-06 13:04:00,68.4,55.2,30.12,SSW,196,0.9,2.0,63,0.00,,,0.00,meteobridge,2013-06-06 17:04:00,
2013-06-06 13:09:00,68.4,55.8,30.12,SE,138,0.0,2.9,64,0.00,,,0.00,meteobridge,2013-06-06 17:09:00,
2013-06-06 13:14:00,68.5,55.4,30.11,East,86,0.0,0.0,63,0.00,,,0.00,meteobridge,2013-06-06 17:14:00,
2013-06-06 13:20:00,68.5,54.5,30.11,NNE,28,0.9,2.0,61,0.00,,,0.00,meteobridge,2013-06-06 17:20:00,
2013-06-06 13:25:00,68.5,54.5,30.11,ENE,62,0.9,2.9,61,0.00,,,0.00,meteobridge,2013-06-06 17:25:00,
2013-06-06 13:30:00,68.4,54.9,30.10,ENE,69,0.0,2.0,62,0.00,,,0.00,meteobridge,2013-06-06 17:30:00,
2013-06-06 13:35:00,68.2,53.8,30.10,SSW,196,2.0,2.9,60,0.00,,,0.00,meteobridge,2013-06-06 17:35:00,
2013-06-06 13:41:00,67.8,53.4,30.10,South,188,2.9,4.9,60,0.00,,,0.00,meteobridge,2013-06-06 17:41:00,
2013-06-06 13:46:00,67.8,53.4,30.10,SSW,208,0.9,4.0,60,0.00,,,0.00,meteobridge,2013-06-06 17:46:00,
2013-06-06 13:51:00,67.6,54.7,30.11,East,89,2.0,2.9,63,0.00,,,0.00,meteobridge,2013-06-06 17:51:00,
2013-06-06 13:57:00,67.5,54.0,30.11,SSE,157,0.0,2.0,62,0.00,,,0.00,meteobridge,2013-06-06 17:57:00,
2013-06-06 14:02:00,67.5,54.9,30.11,ENE,57,0.9,0.9,64,0.00,,,0.00,meteobridge,2013-06-06 18:02:00,
2013-06-06 14:07:00,67.5,54.5,30.10,SSE,150,0.0,2.0,63,0.00,,,0.00,meteobridge,2013-06-06 18:07:00,
2013-06-06 14:12:00,67.5,55.2,30.10,SSE,148,0.0,0.0,65,0.00,,,0.00,meteobridge,2013-06-06 18:12:00,
2013-06-06 14:18:00,67.6,54.7,30.10,SSW,193,0.9,2.9,63,0.00,,,0.00,meteobridge,2013-06-06 18:18:00,
2013-06-06 14:23:00,67.8,55.2,30.11,South,190,0.9,2.0,64,0.00,,,0.00,meteobridge,2013-06-06 18:23:00,
2013-06-06 14:28:00,68.2,54.1,30.11,SSW,209,2.9,4.9,61,0.00,,,0.00,meteobridge,2013-06-06 18:28:00,
2013-06-06 14:34:00,68.2,54.7,30.11,SSW,196,0.9,2.0,62,0.00,,,0.00,meteobridge,2013-06-06 18:34:00,
2013-06-06 14:39:00,68.4,54.0,30.11,SSW,192,0.0,4.9,60,0.00,,,0.00,meteobridge,2013-06-06 18:39:00,
2013-06-06 14:44:00,68.4,53.4,30.11,ENE,74,0.0,4.9,59,0.00,,,0.00,meteobridge,2013-06-06 18:44:00,
2013-06-06 14:50:00,68.2,52.9,30.11,NE,34,0.9,0.9,58,0.00,,,0.00,meteobridge,2013-06-06 18:50:00,
2013-06-06 14:55:00,68.0,52.7,30.11,ESE,113,0.9,2.9,58,0.00,,,0.00,meteobridge,2013-06-06 18:55:00,
2013-06-06 15:01:00,67.8,53.4,30.11,NNE,22,0.0,0.0,60,0.00,,,0.00,meteobridge,2013-06-06 19:01:00,
2013-06-06 15:06:00,67.6,52.3,30.10,SSW,195,0.0,4.9,58,0.00,,,0.00,meteobridge,2013-06-06 19:06:00,
2013-06-06 15:12:00,67.6,50.9,30.11,South,189,0.9,2.0,55,0.00,,,0.00,meteobridge,2013-06-06 19:12:00,
2013-06-06 15:17:00,67.6,51.8,30.11,SSW,211,0.9,0.9,57,0.00,,,0.00,meteobridge,2013-06-06 19:17:00,
2013-06-06 15:22:00,67.6,51.4,30.11,SW,219,0.0,2.0,56,0.00,,,0.00,meteobridge,2013-06-06 19:22:00,
2013-06-06 15:27:00,67.6,52.3,30.11,WSW,244,0.9,2.0,58,0.00,,,0.00,meteobridge,2013-06-06 19:27:00,
2013-06-06 15:33:00,67.5,50.7,30.11,SW,222,0.0,2.0,55,0.00,,,0.00,meteobridge,2013-06-06 19:33:00,
2013-06-06 15:38:00,67.3,50.0,30.11,SSW,201,0.0,2.9,54,0.00,,,0.00,meteobridge,2013-06-06 19:38:00,
2013-06-06 15:44:00,67.3,51.4,30.10,SSW,202,0.0,0.9,57,0.00,,,0.00,meteobridge,2013-06-06 19:44:00,
2013-06-06 15:49:00,67.1,51.4,30.10,SSW,209,0.0,4.9,57,0.00,,,0.00,meteobridge,2013-06-06 19:49:00,
2013-06-06 15:54:00,67.1,51.4,30.09,North,355,0.9,2.0,57,0.00,,,0.00,meteobridge,2013-06-06 19:54:00,
2013-06-06 15:59:00,67.1,52.7,30.09,WNW,293,0.0,0.0,60,0.00,,,0.00,meteobridge,2013-06-06 19:59:00,
2013-06-06 16:04:00,67.1,53.2,30.09,NW,309,0.0,0.0,61,0.00,,,0.00,meteobridge,2013-06-06 20:04:00,
2013-06-06 16:09:00,66.9,50.7,30.09,ENE,74,0.0,4.0,56,0.00,,,0.00,meteobridge,2013-06-06 20:09:00,
2013-06-06 16:14:00,66.9,50.7,30.09,NE,36,0.9,0.9,56,0.00,,,0.00,meteobridge,2013-06-06 20:14:00,
2013-06-06 16:20:00,66.7,51.1,30.09,ENE,72,0.0,2.0,57,0.00,,,0.00,meteobridge,2013-06-06 20:20:00,
2013-06-06 16:25:00,66.7,51.4,30.09,East,92,0.0,0.0,58,0.00,,,0.00,meteobridge,2013-06-06 20:25:00,
2013-06-06 16:30:00,66.6,51.8,30.09,East,80,0.0,0.0,59,0.00,,,0.00,meteobridge,2013-06-06 20:30:00,
2013-06-06 16:36:00,66.6,51.8,30.09,ENE,64,0.0,0.9,59,0.00,,,0.00,meteobridge,2013-06-06 20:36:00,
2013-06-06 16:42:00,66.6,51.3,30.09,SW,217,0.0,0.0,58,0.00,,,0.00,meteobridge,2013-06-06 20:42:00,
2013-06-06 16:47:00,66.6,51.8,30.09,SW,217,0.0,0.9,59,0.00,,,0.00,meteobridge,2013-06-06 20:47:00,
2013-06-06 16:52:00,66.4,51.6,30.09,SW,217,0.0,0.0,59,0.00,,,0.00,meteobridge,2013-06-06 20:52:00,
2013-06-06 16:57:00,66.4,51.6,30.09,SW,233,0.0,0.9,59,0.00,,,0.00,meteobridge,2013-06-06 20:57:00,
2013-06-06 17:02:00,66.4,50.7,30.08,West,261,0.0,0.9,57,0.00,,,0.00,meteobridge,2013-06-06 21:02:00,
2013-06-06 17:08:00,66.0,50.4,30.09,West,261,0.0,0.9,57,0.00,,,0.00,meteobridge,2013-06-06 21:08:00,
2013-06-06 17:13:00,66.0,49.8,30.09,North,10,0.0,2.0,56,0.00,,,0.00,meteobridge,2013-06-06 21:13:00,
2013-06-06 17:18:00,65.8,50.7,30.09,North,10,0.0,0.9,58,0.00,,,0.00,meteobridge,2013-06-06 21:18:00,
2013-06-06 17:23:00,65.7,50.5,30.09,West,264,0.0,2.0,58,0.00,,,0.00,meteobridge,2013-06-06 21:23:00,
2013-06-06 17:28:00,65.5,51.3,30.09,NW,317,0.0,0.9,60,0.00,,,0.00,meteobridge,2013-06-06 21:28:00,
2013-06-06 17:34:00,65.3,50.2,30.09,NW,317,0.0,0.0,58,0.00,,,0.00,meteobridge,2013-06-06 21:34:00,
2013-06-06 17:39:00,65.1,50.9,30.09,NW,317,0.0,0.0,60,0.00,,,0.00,meteobridge,2013-06-06 21:39:00,
2013-06-06 17:45:00,64.9,51.6,30.09,NNW,331,0.0,0.9,62,0.00,,,0.00,meteobridge,2013-06-06 21:45:00,
2013-06-06 17:50:00,64.9,52.5,30.09,West,279,0.0,0.9,64,0.00,,,0.00,meteobridge,2013-06-06 21:50:00,
2013-06-06 17:56:00,64.6,52.9,30.09,NW,315,0.0,0.0,66,0.00,,,0.00,meteobridge,2013-06-06 21:56:00,
2013-06-06 18:01:00,64.2,53.8,30.09,NW,315,0.0,0.0,69,0.00,,,0.00,meteobridge,2013-06-06 22:01:00,
2013-06-06 18:07:00,63.9,55.0,30.09,NW,315,0.0,0.0,73,0.00,,,0.00,meteobridge,2013-06-06 22:07:00,
2013-06-06 18:12:00,63.3,54.9,30.09,NW,315,0.0,0.0,74,0.00,,,0.00,meteobridge,2013-06-06 22:12:00,
2013-06-06 18:17:00,62.8,55.0,30.09,NW,315,0.0,0.0,76,0.00,,,0.00,meteobridge,2013-06-06 22:17:00,
2013-06-06 18:22:00,62.2,54.9,30.09,NW,315,0.0,0.0,77,0.00,,,0.00,meteobridge,2013-06-06 22:22:00,
2013-06-06 18:27:00,61.9,55.2,30.09,NW,315,0.0,0.0,79,0.01,,,0.01,meteobridge,2013-06-06 22:27:00,
2013-06-06 18:32:00,61.3,55.0,30.09,NW,315,0.0,0.0,80,0.01,,,0.01,meteobridge,2013-06-06 22:32:00,
2013-06-06 18:37:00,61.0,55.4,30.09,NW,315,0.0,0.0,82,0.01,,,0.01,meteobridge,2013-06-06 22:37:00,
2013-06-06 18:42:00,60.6,56.1,30.09,NW,315,0.0,0.0,85,0.01,,,0.01,meteobridge,2013-06-06 22:42:00,
2013-06-06 18:47:00,60.3,56.1,30.09,NW,315,0.0,0.0,86,0.02,,,0.02,meteobridge,2013-06-06 22:47:00,
2013-06-06 18:53:00,59.7,56.1,30.09,NW,315,0.0,0.0,88,0.02,,,0.02,meteobridge,2013-06-06 22:53:00,
2013-06-06 18:58:00,59.5,56.3,30.09,NW,315,0.0,0.0,89,0.02,,,0.02,meteobridge,2013-06-06 22:58:00,
2013-06-06 19:03:00,59.2,56.3,30.09,NW,315,0.0,0.0,90,0.02,,,0.02,meteobridge,2013-06-06 23:03:00,
2013-06-06 19:08:00,59.0,56.3,30.09,NNW,336,0.0,0.0,91,0.02,,,0.02,meteobridge,2013-06-06 23:08:00,
2013-06-06 19:14:00,58.8,56.5,30.09,NNW,337,0.0,0.9,92,0.03,,,0.03,meteobridge,2013-06-06 23:14:00,
2013-06-06 19:19:00,58.6,56.3,30.09,NNW,337,0.0,0.9,92,0.03,,,0.03,meteobridge,2013-06-06 23:19:00,
2013-06-06 19:24:00,58.5,56.5,30.08,NNW,336,0.0,0.0,93,0.02,,,0.03,meteobridge,2013-06-06 23:24:00,
2013-06-06 19:30:00,58.5,56.5,30.08,NNW,336,0.0,0.0,93,0.02,,,0.03,meteobridge,2013-06-06 23:30:00,
2013-06-06 19:35:00,58.3,56.3,30.08,NNW,340,0.0,0.9,93,0.02,,,0.03,meteobridge,2013-06-06 23:35:00,
2013-06-06 19:40:00,58.3,56.3,30.08,NNW,340,0.0,0.0,93,0.02,,,0.03,meteobridge,2013-06-06 23:40:00,
2013-06-06 19:45:00,58.3,56.5,30.08,NNW,340,0.0,0.0,94,0.01,,,0.03,meteobridge,2013-06-06 23:45:00,
2013-06-06 19:51:00,58.1,56.3,30.08,NNW,340,0.0,0.9,94,0.02,,,0.04,meteobridge,2013-06-06 23:51:00,
2013-06-06 19:56:00,58.1,56.3,30.07,NNE,18,0.0,0.0,94,0.02,,,0.04,meteobridge,2013-06-06 23:56:00,
2013-06-06 20:01:00,58.1,56.7,30.08,NNE,18,0.0,0.0,95,0.02,,,0.00,meteobridge,2013-06-07 00:01:00,
2013-06-06 20:07:00,58.1,56.7,30.07,NNE,18,0.0,0.0,95,0.02,,,0.00,meteobridge,2013-06-07 00:07:00,
2013-06-06 20:12:00,58.3,56.8,30.07,NNE,18,0.0,0.0,95,0.01,,,0.00,meteobridge,2013-06-07 00:12:00,
2013-06-06 20:18:00,58.3,56.8,30.07,NNE,18,0.0,0.0,95,0.01,,,0.00,meteobridge,2013-06-07 00:18:00,
2013-06-06 20:23:00,58.3,57.2,30.07,NNE,18,0.0,0.0,96,0.01,,,0.00,meteobridge,2013-06-07 00:23:00,
2013-06-06 20:29:00,58.3,57.2,30.07,NNE,18,0.0,0.0,96,0.02,,,0.01,meteobridge,2013-06-07 00:29:00,
2013-06-06 20:35:00,58.3,57.2,30.06,NE,40,0.0,0.0,96,0.02,,,0.01,meteobridge,2013-06-07 00:35:00,
2013-06-06 20:40:00,58.3,57.2,30.06,ENE,65,0.0,0.0,96,0.02,,,0.01,meteobridge,2013-06-07 00:40:00,
2013-06-06 20:45:00,58.3,57.2,30.07,ENE,65,0.0,0.0,96,0.02,,,0.01,meteobridge,2013-06-07 00:45:00,
2013-06-06 20:50:00,58.3,57.2,30.07,ENE,57,0.0,0.9,96,0.01,,,0.01,meteobridge,2013-06-07 00:50:00,
2013-06-06 20:55:00,58.3,57.2,30.07,ENE,63,0.0,0.0,96,0.01,,,0.01,meteobridge,2013-06-07 00:55:00,
2013-06-06 21:00:00,58.1,57.0,30.07,ENE,73,0.0,0.9,96,0.01,,,0.01,meteobridge,2013-06-07 01:00:00,
2013-06-06 21:06:00,58.1,57.0,30.07,East,101,0.0,0.0,96,0.01,,,0.01,meteobridge,2013-06-07 01:06:00,
2013-06-06 21:12:00,58.1,57.0,30.07,East,94,0.0,0.9,96,0.01,,,0.01,meteobridge,2013-06-07 01:12:00,
2013-06-06 21:17:00,57.9,56.8,30.06,East,94,0.0,0.0,96,0.01,,,0.01,meteobridge,2013-06-07 01:17:00,
2013-06-06 21:22:00,57.9,56.8,30.07,East,94,0.0,0.0,96,0.01,,,0.01,meteobridge,2013-06-07 01:22:00,
2013-06-06 21:27:00,57.9,56.8,30.07,NE,55,0.0,0.9,96,0.00,,,0.01,meteobridge,2013-06-07 01:27:00,
2013-06-06 21:33:00,57.9,56.8,30.07,NE,55,0.0,0.0,96,0.00,,,0.01,meteobridge,2013-06-07 01:33:00,
2013-06-06 21:38:00,57.9,56.8,30.07,NE,55,0.0,0.0,96,0.00,,,0.01,meteobridge,2013-06-07 01:38:00,
2013-06-06 21:43:00,57.9,56.8,30.07,ENE,66,0.0,0.9,96,0.01,,,0.02,meteobridge,2013-06-07 01:43:00,
2013-06-06 21:49:00,57.9,56.8,30.07,ENE,66,0.0,0.0,96,0.01,,,0.02,meteobridge,2013-06-07 01:49:00,
2013-06-06 21:54:00,57.7,56.7,30.08,ENE,60,0.0,0.0,96,0.01,,,0.02,meteobridge,2013-06-07 01:54:00,
2013-06-06 21:59:00,57.7,56.7,30.08,NE,38,0.0,0.0,96,0.01,,,0.02,meteobridge,2013-06-07 01:59:00,
2013-06-06 22:04:00,57.7,56.7,30.07,ENE,66,0.0,0.0,96,0.01,,,0.02,meteobridge,2013-06-07 02:04:00,
2013-06-06 22:10:00,57.7,56.7,30.07,ENE,78,0.0,0.0,96,0.01,,,0.02,meteobridge,2013-06-07 02:10:00,
2013-06-06 22:15:00,57.7,56.7,30.07,ENE,78,0.0,0.0,96,0.02,,,0.03,meteobridge,2013-06-07 02:15:00,
2013-06-06 22:20:00,57.7,56.7,30.06,ENE,58,0.0,0.0,96,0.02,,,0.03,meteobridge,2013-06-07 02:20:00,
2013-06-06 22:26:00,57.7,56.7,30.06,NE,49,0.0,2.0,96,0.02,,,0.03,meteobridge,2013-06-07 02:26:00,
2013-06-06 22:31:00,57.6,56.5,30.06,NE,34,0.0,0.0,96,0.03,,,0.04,meteobridge,2013-06-07 02:31:00,
2013-06-06 22:36:00,57.6,56.7,30.06,NE,36,0.9,0.9,97,0.03,,,0.04,meteobridge,2013-06-07 02:36:00,
2013-06-06 22:42:00,57.6,56.7,30.07,NNE,26,0.0,0.0,97,0.02,,,0.04,meteobridge,2013-06-07 02:42:00,
2013-06-06 22:47:00,57.6,56.7,30.06,NNE,26,0.0,0.0,97,0.03,,,0.05,meteobridge,2013-06-07 02:47:00,
2013-06-06 22:52:00,57.4,56.5,30.06,NNE,26,0.0,0.0,97,0.03,,,0.05,meteobridge,2013-06-07 02:52:00,
2013-06-06 22:57:00,57.4,56.5,30.06,NNE,26,0.0,0.0,97,0.03,,,0.05,meteobridge,2013-06-07 02:57:00,
2013-06-06 23:03:00,57.4,56.5,30.06,NNE,26,0.0,0.0,97,0.04,,,0.06,meteobridge,2013-06-07 03:03:00,
2013-06-06 23:08:00,57.4,56.5,30.06,NNE,31,0.0,0.9,97,0.04,,,0.06,meteobridge,2013-06-07 03:08:00,
2013-06-06 23:13:00,57.2,56.3,30.06,NNE,31,0.0,0.0,97,0.03,,,0.06,meteobridge,2013-06-07 03:13:00,
2013-06-06 23:19:00,57.2,56.3,30.05,NNE,20,0.0,0.0,97,0.03,,,0.06,meteobridge,2013-06-07 03:19:00,
2013-06-06 23:24:00,57.2,56.3,30.05,ENE,60,0.0,0.0,97,0.03,,,0.06,meteobridge,2013-06-07 03:24:00,
2013-06-06 23:29:00,57.2,56.3,30.05,ENE,60,0.0,0.0,97,0.02,,,0.06,meteobridge,2013-06-07 03:29:00,
2013-06-06 23:34:00,57.0,56.1,30.05,ENE,60,0.0,0.0,97,0.03,,,0.07,meteobridge,2013-06-07 03:34:00,
2013-06-06 23:39:00,57.0,56.1,30.05,ENE,60,0.0,0.0,97,0.03,,,0.07,meteobridge,2013-06-07 03:39:00,
2013-06-06 23:45:00,57.0,56.1,30.05,ENE,60,0.9,0.9,97,0.02,,,0.07,meteobridge,2013-06-07 03:45:00,
2013-06-06 23:50:00,57.0,56.1,30.05,NE,40,0.0,0.9,97,0.02,,,0.07,meteobridge,2013-06-07 03:50:00,
2013-06-06 23:56:00,57.0,56.1,30.05,ENE,63,0.0,2.0,97,0.02,,,0.07,meteobridge,2013-06-07 03:56:00,